Time;durP1;ratioP1;P1;durP2;ratioP2;P2;SDS_P1;SDS_P2;PMS_P1;PMS_P2;Temp;Humidity;BMP_temperature;BMP_pressure;BME280_temperature;BME280_humidity;BME280_pressure;Samples;Min_cycle;Max_cycle;Signal;HPM_P1;HPM_P2
2023/03/03 00:01:09;;;;;;;39.37;21.97;;;1.10;99.90;;;;;;5034149;28;20204;-84
2023/03/03 00:03:34;;;;;;;41.83;22.80;;;1.00;99.90;;;;;;5032783;28;20209;-84
2023/03/03 00:06:02;;;;;;;44.73;25.07;;;1.00;99.90;;;;;;5032594;28;20185;-84
2023/03/03 00:08:28;;;;;;;38.00;22.23;;;1.00;99.90;;;;;;5033262;28;20181;-84
2023/03/03 00:10:54;;;;;;;40.87;24.87;;;1.00;99.90;;;;;;5032644;28;20204;-84
2023/03/03 00:13:22;;;;;;;37.53;22.50;;;0.90;99.90;;;;;;5033719;28;20197;-83
2023/03/03 00:15:49;;;;;;;43.17;23.87;;;0.90;99.90;;;;;;5032756;28;20275;-85
2023/03/03 00:18:21;;;;;;;40.50;22.20;;;0.90;99.90;;;;;;5033060;28;20209;-84
2023/03/03 00:20:51;;;;;;;40.63;21.73;;;0.80;99.90;;;;;;5033109;28;20192;-83
2023/03/03 00:23:28;;;;;;;37.23;21.30;;;0.80;99.90;;;;;;5037088;28;20239;-84
2023/03/03 00:25:54;;;;;;;42.67;23.70;;;0.70;99.90;;;;;;5037435;28;20240;-84
2023/03/03 00:28:28;;;;;;;39.67;22.53;;;0.70;99.90;;;;;;5036967;28;20188;-84
2023/03/03 00:30:56;;;;;;;43.47;22.67;;;0.70;99.90;;;;;;5038563;28;20193;-82
2023/03/03 00:33:32;;;;;;;43.27;24.03;;;0.70;99.90;;;;;;5036981;28;20215;-83
2023/03/03 00:36:30;;;;;;;47.10;24.27;;;0.60;99.90;;;;;;5036951;28;20183;-84
2023/03/03 00:39:09;;;;;;;41.27;22.57;;;0.60;99.90;;;;;;5004086;28;20193;-85
2023/03/03 00:41:36;;;;;;;47.40;25.03;;;0.60;99.90;;;;;;5037323;28;20185;-85
2023/03/03 00:44:27;;;;;;;51.73;27.10;;;0.60;99.90;;;;;;5037189;28;20207;-84
2023/03/03 00:46:53;;;;;;;49.33;26.00;;;0.50;99.90;;;;;;5038898;28;20185;-83
2023/03/03 00:49:25;;;;;;;53.87;30.83;;;0.50;99.90;;;;;;5035756;28;20183;-84
2023/03/03 00:51:52;;;;;;;48.60;27.17;;;0.50;99.90;;;;;;5035847;28;20208;-84
2023/03/03 00:54:18;;;;;;;54.00;27.83;;;0.50;99.90;;;;;;5056505;28;20594;-83
2023/03/03 00:56:43;;;;;;;50.57;26.17;;;1.10;99.90;;;;;;5038846;28;20185;-84
2023/03/03 00:59:09;;;;;;;49.50;24.83;;;0.40;99.90;;;;;;5038896;28;20177;-85
2023/03/03 01:01:35;;;;;;;51.73;26.80;;;0.40;99.90;;;;;;5056635;28;20540;-85
2023/03/03 01:04:00;;;;;;;54.57;27.80;;;0.40;99.90;;;;;;5038850;28;20691;-82
2023/03/03 01:06:26;;;;;;;59.03;28.30;;;0.40;99.90;;;;;;5038788;28;20188;-84
2023/03/03 01:08:53;;;;;;;57.00;28.27;;;0.40;99.90;;;;;;5040407;28;20235;-85
2023/03/03 01:11:24;;;;;;;48.07;25.57;;;0.40;99.90;;;;;;5038564;28;20211;-82
2023/03/03 01:13:52;;;;;;;55.70;27.87;;;0.40;99.90;;;;;;5038988;28;20604;-84
2023/03/03 01:16:18;;;;;;;55.27;29.57;;;0.40;99.90;;;;;;5056903;28;20198;-84
2023/03/03 01:18:43;;;;;;;56.57;28.03;;;0.50;99.90;;;;;;5038975;28;20185;-84
2023/03/03 01:21:10;;;;;;;60.30;29.77;;;0.50;99.90;;;;;;5039564;28;20280;-84
2023/03/03 01:23:36;;;;;;;58.17;26.40;;;0.50;99.90;;;;;;5040132;28;20204;-85
2023/03/03 01:26:03;;;;;;;60.73;29.00;;;0.50;99.90;;;;;;5040223;28;20188;-84
2023/03/03 01:28:28;;;;;;;65.33;31.20;;;0.50;99.90;;;;;;5039617;28;20207;-84
2023/03/03 01:30:58;;;;;;;66.67;32.10;;;0.60;99.90;;;;;;5040081;28;20215;-87
2023/03/03 01:33:24;;;;;;;64.17;31.83;;;0.50;99.90;;;;;;5039297;28;20687;-86
2023/03/03 01:35:49;;;;;;;56.60;27.00;;;0.60;99.90;;;;;;5040956;28;20180;-86
2023/03/03 01:38:15;;;;;;;72.33;35.63;;;0.60;99.90;;;;;;5040127;28;20229;-86
2023/03/03 01:40:41;;;;;;;73.97;33.47;;;0.60;99.90;;;;;;5057818;28;20257;-86
2023/03/03 01:43:06;;;;;;;80.30;35.20;;;0.60;99.90;;;;;;5039905;28;20291;-85
2023/03/03 01:45:47;;;;;;;88.17;37.27;;;0.60;99.90;;;;;;5040213;28;20269;-87
2023/03/03 01:48:25;;;;;;;91.60;42.33;;;0.60;99.90;;;;;;5040049;28;20195;-85
2023/03/03 01:50:55;;;;;;;83.07;37.70;;;0.70;99.90;;;;;;5039971;28;20341;-86
2023/03/03 01:53:33;;;;;;;96.97;42.30;;;0.70;99.90;;;;;;5036646;28;20319;-86
2023/03/03 01:55:59;;;;;;;90.63;42.00;;;0.70;99.90;;;;;;5037736;28;20240;-85
2023/03/03 01:58:27;;;;;;;91.23;41.93;;;0.70;99.90;;;;;;5035048;28;20649;-86
2023/03/03 02:00:59;;;;;;;80.40;34.50;;;0.70;99.90;;;;;;5034445;28;20192;-86
2023/03/03 02:03:26;;;;;;;92.93;43.93;;;0.70;99.90;;;;;;5034505;28;20208;-86
2023/03/03 02:05:56;;;;;;;81.60;37.07;;;0.80;99.90;;;;;;5035846;28;20179;-86
2023/03/03 02:08:27;;;;;;;99.87;43.00;;;0.80;99.90;;;;;;5034446;28;20185;-85
2023/03/03 02:10:54;;;;;;;94.13;42.17;;;0.80;99.90;;;;;;5045316;28;20213;-84
2023/03/03 02:13:20;;;;;;;97.73;45.53;;;0.80;99.90;;;;;;5048497;28;20201;-85
2023/03/03 02:15:45;;;;;;;94.10;41.97;;;0.80;99.90;;;;;;5048277;28;20196;-86
2023/03/03 02:18:17;;;;;;;97.20;44.97;;;0.80;99.90;;;;;;5048179;28;20188;-86
2023/03/03 02:21:02;;;;;;;96.53;36.37;;;0.80;99.90;;;;;;5048936;28;20177;-85
2023/03/03 02:23:46;;;;;;;96.43;42.63;;;0.80;99.90;;;;;;5041428;28;20216;-85
2023/03/03 02:26:17;;;;;;;114.47;50.30;;;0.80;99.90;;;;;;5036209;28;20177;-85
2023/03/03 02:28:43;;;;;;;111.60;48.03;;;0.80;99.90;;;;;;5036636;28;20188;-85
2023/03/03 02:31:15;;;;;;;106.90;45.23;;;0.80;99.90;;;;;;5035378;28;20213;-84
2023/03/03 02:33:43;;;;;;;120.77;50.97;;;0.80;99.90;;;;;;5035393;28;20573;-85
2023/03/03 02:36:36;;;;;;;108.83;47.30;;;0.80;99.90;;;;;;5036457;28;20549;-85
2023/03/03 02:39:22;;;;;;;105.63;45.10;;;0.80;99.90;;;;;;5031289;28;20192;-85
2023/03/03 02:42:01;;;;;;;110.77;47.07;;;0.80;99.90;;;;;;5034897;28;20191;-85
2023/03/03 02:44:29;;;;;;;113.47;47.63;;;0.90;99.90;;;;;;5035820;28;20585;-84
2023/03/03 02:46:55;;;;;;;96.40;41.27;;;0.90;99.90;;;;;;5034270;28;20191;-85
2023/03/03 02:49:23;;;;;;;116.13;48.57;;;0.90;99.90;;;;;;5034655;28;20625;-84
2023/03/03 02:51:49;;;;;;;102.37;41.50;;;0.90;99.90;;;;;;5034376;28;20236;-87
2023/03/03 02:54:17;;;;;;;107.73;45.73;;;0.90;99.90;;;;;;5033609;28;20205;-84
2023/03/03 02:56:43;;;;;;;104.23;46.07;;;0.90;99.90;;;;;;5034616;28;20181;-85
2023/03/03 02:59:09;;;;;;;107.60;45.13;;;0.90;99.90;;;;;;5033388;28;20184;-84
2023/03/03 03:01:37;;;;;;;113.53;46.97;;;0.90;99.90;;;;;;5033322;28;20549;-84
2023/03/03 03:04:12;;;;;;;98.33;43.33;;;0.90;99.90;;;;;;5033184;28;20270;-84
2023/03/03 03:06:38;;;;;;;114.37;46.97;;;0.90;99.90;;;;;;5033628;28;20184;-84
2023/03/03 03:09:05;;;;;;;110.67;46.53;;;0.90;99.90;;;;;;5033394;28;20252;-85
2023/03/03 03:11:31;;;;;;;103.93;46.70;;;0.90;99.90;;;;;;5033224;28;20208;-84
2023/03/03 03:13:57;;;;;;;103.03;45.97;;;0.90;99.90;;;;;;5033989;28;20197;-87
2023/03/03 03:16:22;;;;;;;114.17;45.90;;;0.90;99.90;;;;;;5034173;28;20189;-85
2023/03/03 03:18:49;;;;;;;104.27;44.60;;;0.90;99.90;;;;;;5033934;28;20243;-86
2023/03/03 03:21:15;;;;;;;101.17;44.00;;;0.90;99.90;;;;;;5033849;28;20203;-85
2023/03/03 03:23:41;;;;;;;96.13;42.43;;;0.90;99.90;;;;;;5034043;28;20764;-85
2023/03/03 03:26:07;;;;;;;96.23;42.80;;;0.90;99.90;;;;;;5034014;28;20216;-86
2023/03/03 03:28:33;;;;;;;98.73;44.50;;;0.90;99.90;;;;;;5034363;28;20215;-87
2023/03/03 03:30:59;;;;;;;106.03;45.50;;;0.90;99.90;;;;;;5034120;28;20204;-85
2023/03/03 03:33:27;;;;;;;96.90;42.73;;;0.90;99.90;;;;;;5034074;28;20380;-87
2023/03/03 03:35:54;;;;;;;101.43;43.30;;;1.00;99.90;;;;;;5033900;28;20184;-84
2023/03/03 03:38:20;;;;;;;104.67;45.33;;;0.90;99.90;;;;;;5033356;28;20203;-85
2023/03/03 03:40:46;;;;;;;100.80;44.30;;;0.90;99.90;;;;;;5033794;28;20192;-84
2023/03/03 03:43:11;;;;;;;112.17;49.67;;;0.90;99.90;;;;;;5033799;28;20672;-87
2023/03/03 03:45:37;;;;;;;106.87;53.50;;;0.90;99.90;;;;;;5034968;28;20216;-84
2023/03/03 03:48:03;;;;;;;93.00;40.10;;;0.90;99.90;;;;;;5033573;28;20275;-84
2023/03/03 03:50:28;;;;;;;106.07;47.63;;;0.90;99.90;;;;;;5033545;28;20219;-85
2023/03/03 03:52:54;;;;;;;95.17;43.90;;;0.90;99.90;;;;;;5033585;28;20567;-86
2023/03/03 03:55:21;;;;;;;96.57;43.60;;;0.90;99.90;;;;;;5033639;28;20209;-86
2023/03/03 03:57:47;;;;;;;95.67;41.83;;;0.90;99.90;;;;;;5039258;28;20203;-85
2023/03/03 04:00:13;;;;;;;86.13;40.37;;;0.90;99.90;;;;;;5041193;28;20177;-85
2023/03/03 04:02:38;;;;;;;97.47;44.87;;;0.90;99.90;;;;;;5041226;28;20660;-85
2023/03/03 04:05:04;;;;;;;98.30;45.57;;;0.90;99.90;;;;;;5039875;28;20188;-86
2023/03/03 04:07:30;;;;;;;97.13;44.40;;;0.90;99.90;;;;;;5040006;28;20181;-87
2023/03/03 04:09:56;;;;;;;101.17;46.83;;;0.90;99.90;;;;;;5039890;28;20655;-85
2023/03/03 04:12:21;;;;;;;103.17;48.90;;;0.90;99.90;;;;;;5041053;28;20373;-85
2023/03/03 04:14:47;;;;;;;108.07;46.70;;;0.90;99.90;;;;;;5041319;28;20180;-88
2023/03/03 04:17:17;;;;;;;96.37;41.93;;;0.90;99.90;;;;;;5039676;28;20181;-86
2023/03/03 04:19:43;;;;;;;99.90;44.67;;;0.90;99.90;;;;;;5039543;28;20617;-86
2023/03/03 04:22:09;;;;;;;99.80;43.43;;;0.90;99.90;;;;;;5039427;28;20275;-85
2023/03/03 04:24:35;;;;;;;90.77;42.10;;;0.90;99.90;;;;;;5039910;28;20652;-85
2023/03/03 04:27:00;;;;;;;95.93;39.63;;;0.90;99.90;;;;;;5039577;28;20193;-85
2023/03/03 04:29:26;;;;;;;94.27;42.40;;;0.90;99.90;;;;;;5039465;28;20243;-85
2023/03/03 04:31:51;;;;;;;100.17;45.80;;;0.90;99.90;;;;;;5039618;28;20236;-86
2023/03/03 04:34:17;;;;;;;90.53;42.47;;;0.90;99.90;;;;;;5039654;28;20181;-86
2023/03/03 04:36:42;;;;;;;103.07;47.37;;;0.90;99.90;;;;;;5039356;28;20239;-85
2023/03/03 04:39:08;;;;;;;90.47;38.37;;;0.80;99.90;;;;;;5040588;28;20539;-84
2023/03/03 04:41:34;;;;;;;80.27;36.50;;;0.90;99.90;;;;;;5039952;28;20527;-83
2023/03/03 04:43:59;;;;;;;93.97;40.07;;;0.80;99.90;;;;;;5042224;28;20660;-88
2023/03/03 04:46:25;;;;;;;93.37;44.43;;;0.90;99.90;;;;;;5039880;28;20196;-84
2023/03/03 04:48:51;;;;;;;99.87;44.23;;;0.80;99.90;;;;;;5038669;28;20189;-84
2023/03/03 04:51:17;;;;;;;84.80;40.20;;;0.80;99.90;;;;;;5039687;28;20279;-84
2023/03/03 04:53:43;;;;;;;88.27;40.33;;;0.80;99.90;;;;;;5038506;28;20216;-84
2023/03/03 04:56:09;;;;;;;89.73;38.00;;;0.80;99.90;;;;;;5039326;28;20188;-85
2023/03/03 04:58:34;;;;;;;98.43;41.10;;;0.90;99.90;;;;;;5038862;28;20188;-83
2023/03/03 05:01:00;;;;;;;100.37;45.60;;;0.90;99.90;;;;;;5041340;28;20209;-85
2023/03/03 05:03:26;;;;;;;97.10;44.17;;;0.90;99.90;;;;;;5038722;28;20619;-84
2023/03/03 05:05:52;;;;;;;99.70;47.83;;;0.90;99.90;;;;;;5038695;28;20185;-84
2023/03/03 05:08:18;;;;;;;100.30;43.67;;;0.80;99.90;;;;;;5035705;28;20226;-84
2023/03/03 05:10:44;;;;;;;88.57;36.70;;;0.80;99.90;;;;;;5035744;28;20213;-84
2023/03/03 05:13:09;;;;;;;88.10;40.40;;;0.70;99.90;;;;;;5035422;28;20288;-84
2023/03/03 05:15:36;;;;;;;93.67;39.73;;;0.80;99.90;;;;;;5035554;28;20208;-87
2023/03/03 05:18:01;;;;;;;83.13;34.93;;;0.80;99.90;;;;;;5036034;28;20226;-84
2023/03/03 05:20:27;;;;;;;73.83;31.13;;;0.80;99.90;;;;;;5035679;28;20181;-84
2023/03/03 05:22:53;;;;;;;95.20;42.73;;;0.80;99.90;;;;;;5035433;28;20208;-85
2023/03/03 05:25:21;;;;;;;92.67;39.40;;;0.80;99.90;;;;;;5035555;28;20180;-84
2023/03/03 05:27:46;;;;;;;92.90;40.70;;;0.80;99.90;;;;;;5035586;28;20270;-84
2023/03/03 05:30:12;;;;;;;89.60;38.27;;;0.70;99.90;;;;;;5035538;28;20189;-84
2023/03/03 05:32:38;;;;;;;91.77;40.63;;;0.80;99.90;;;;;;5035966;28;20324;-85
2023/03/03 05:35:04;;;;;;;93.97;41.07;;;0.70;99.90;;;;;;5036055;28;20204;-85
2023/03/03 05:37:30;;;;;;;103.13;44.40;;;0.80;99.90;;;;;;5036286;28;20185;-84
2023/03/03 05:39:56;;;;;;;104.07;44.47;;;0.70;99.90;;;;;;5038127;28;20258;-84
2023/03/03 05:42:21;;;;;;;94.63;41.93;;;0.80;99.90;;;;;;5036995;28;20205;-85
2023/03/03 05:44:47;;;;;;;101.80;44.53;;;1.40;99.90;;;;;;5037140;28;20648;-85
2023/03/03 05:47:12;;;;;;;99.03;38.97;;;0.70;99.90;;;;;;5037104;28;20713;-82
2023/03/03 05:49:38;;;;;;;91.27;40.47;;;0.70;99.90;;;;;;5037056;28;20263;-84
2023/03/03 05:52:04;;;;;;;90.10;40.20;;;0.70;99.90;;;;;;5038034;28;20668;-85
2023/03/03 05:54:29;;;;;;;91.00;38.60;;;0.70;99.90;;;;;;5040627;28;20266;-85
2023/03/03 05:56:56;;;;;;;99.10;40.57;;;0.70;99.90;;;;;;5040576;28;20184;-86
2023/03/03 05:59:22;;;;;;;98.37;42.67;;;0.60;99.90;;;;;;5058255;28;20560;-87
2023/03/03 06:01:48;;;;;;;90.17;39.43;;;0.60;99.90;;;;;;5058254;28;20216;-85
2023/03/03 06:04:13;;;;;;;88.93;39.33;;;0.60;99.90;;;;;;5040357;28;20261;-86
2023/03/03 06:06:39;;;;;;;92.10;37.80;;;0.70;99.90;;;;;;5040072;28;20241;-86
2023/03/03 06:09:05;;;;;;;104.50;42.57;;;0.60;99.90;;;;;;5040422;28;20176;-85
2023/03/03 06:11:30;;;;;;;95.10;41.27;;;0.70;99.90;;;;;;5058118;28;20556;-87
2023/03/03 06:13:56;;;;;;;99.67;40.33;;;0.60;99.90;;;;;;5040346;28;20192;-85
2023/03/03 06:16:22;;;;;;;98.50;41.33;;;0.70;99.90;;;;;;5058471;28;20211;-86
2023/03/03 06:18:47;;;;;;;89.03;35.57;;;0.60;99.90;;;;;;5040068;28;20701;-87
2023/03/03 06:21:13;;;;;;;103.23;40.03;;;0.70;99.90;;;;;;5040655;28;20191;-87
2023/03/03 06:23:38;;;;;;;98.97;42.00;;;0.70;99.90;;;;;;5040821;28;20256;-87
2023/03/03 06:26:04;;;;;;;99.27;41.80;;;0.60;99.90;;;;;;5040175;28;20549;-85
2023/03/03 06:28:29;;;;;;;95.50;41.57;;;0.70;99.90;;;;;;5037943;28;20553;-84
2023/03/03 06:30:55;;;;;;;86.83;37.20;;;0.70;99.90;;;;;;5037776;28;20212;-87
2023/03/03 06:33:21;;;;;;;98.23;40.73;;;0.60;99.90;;;;;;5037572;28;20216;-84
2023/03/03 06:35:51;;;;;;;85.10;38.30;;;0.60;99.90;;;;;;5037624;28;20267;-83
2023/03/03 06:38:17;;;;;;;80.87;35.83;;;0.60;99.90;;;;;;5037608;28;20275;-84
2023/03/03 06:40:44;;;;;;;85.37;36.07;;;0.60;99.90;;;;;;5037876;28;20204;-84
2023/03/03 06:43:09;;;;;;;98.67;42.73;;;0.60;99.90;;;;;;5039089;28;20207;-83
2023/03/03 06:45:35;;;;;;;92.00;39.73;;;0.60;99.90;;;;;;5036896;28;20291;-84
2023/03/03 06:48:00;;;;;;;97.10;40.63;;;0.60;99.90;;;;;;5036844;28;20184;-84
2023/03/03 06:50:26;;;;;;;88.63;39.17;;;0.50;99.90;;;;;;5036881;28;20184;-83
2023/03/03 06:53:04;;;;;;;94.60;41.03;;;0.60;99.90;;;;;;5033506;28;20221;-84
2023/03/03 06:55:29;;;;;;;87.90;37.10;;;0.60;99.90;;;;;;5033730;28;20648;-83
2023/03/03 06:57:55;;;;;;;100.00;41.00;;;0.60;99.90;;;;;;5034135;28;20188;-83
2023/03/03 07:00:26;;;;;;;93.60;39.90;;;0.60;99.90;;;;;;5034337;28;20191;-84
2023/03/03 07:03:07;;;;;;;91.57;41.30;;;0.70;99.90;;;;;;5033972;28;20296;-84
2023/03/03 07:05:33;;;;;;;89.40;40.37;;;0.60;99.90;;;;;;5034473;28;20177;-84
2023/03/03 07:07:59;;;;;;;91.23;41.03;;;0.60;99.90;;;;;;5033561;28;20553;-84
2023/03/03 07:10:27;;;;;;;96.30;40.10;;;0.60;99.90;;;;;;5033646;28;20177;-84
2023/03/03 07:12:55;;;;;;;98.50;41.47;;;0.60;99.90;;;;;;5033919;28;20327;-85
2023/03/03 07:15:33;;;;;;;90.70;39.70;;;0.60;99.90;;;;;;5033731;28;20220;-86
2023/03/03 07:17:59;;;;;;;67.80;30.93;;;0.70;99.90;;;;;;5034056;28;20199;-83
2023/03/03 07:20:40;;;;;;;94.23;36.97;;;0.50;99.90;;;;;;5033989;28;20181;-84
2023/03/03 07:23:26;;;;;;;106.13;43.40;;;0.70;99.90;;;;;;5033598;28;20222;-83
2023/03/03 07:25:52;;;;;;;92.20;39.57;;;0.60;99.90;;;;;;5033669;28;20181;-84
2023/03/03 07:28:26;;;;;;;89.37;38.37;;;0.70;99.90;;;;;;5033629;28;20545;-84
2023/03/03 07:30:53;;;;;;;90.33;40.53;;;0.70;99.90;;;;;;5033050;28;20204;-85
2023/03/03 07:33:30;;;;;;;92.83;40.57;;;0.70;99.90;;;;;;5033556;28;20200;-83
2023/03/03 07:35:58;;;;;;;85.40;38.50;;;0.70;99.90;;;;;;5033823;28;20173;-84
2023/03/03 07:38:33;;;;;;;89.90;39.43;;;0.70;99.90;;;;;;5033262;28;20749;-84
2023/03/03 07:41:01;;;;;;;96.47;42.17;;;0.70;99.90;;;;;;5033359;28;20275;-84
2023/03/03 07:43:53;;;;;;;99.83;40.23;;;0.70;99.90;;;;;;5033731;28;20208;-84
2023/03/03 07:46:26;;;;;;;105.60;46.70;;;0.70;99.90;;;;;;5033459;28;20270;-84
2023/03/03 07:48:52;;;;;;;93.20;39.10;;;0.70;99.90;;;;;;5033388;28;20275;-83
2023/03/03 07:51:21;;;;;;;94.57;40.43;;;0.70;99.90;;;;;;5033541;28;20268;-84
2023/03/03 07:53:47;;;;;;;81.93;35.63;;;0.70;99.90;;;;;;5050131;28;20584;-83
2023/03/03 07:56:22;;;;;;;74.47;32.20;;;0.80;99.90;;;;;;5054451;28;20628;-84
2023/03/03 07:58:48;;;;;;;81.23;35.43;;;0.80;99.90;;;;;;5036664;28;20180;-84
2023/03/03 08:01:34;;;;;;;78.67;33.97;;;0.80;99.90;;;;;;5036679;28;20278;-84
2023/03/03 08:03:59;;;;;;;85.33;37.83;;;0.80;99.90;;;;;;5054400;28;20659;-84
2023/03/03 08:06:34;;;;;;;79.80;35.23;;;0.80;99.90;;;;;;5036830;28;20241;-83
2023/03/03 08:09:09;;;;;;;77.13;35.27;;;0.80;99.90;;;;;;5036780;28;20604;-84
2023/03/03 08:11:36;;;;;;;81.83;34.83;;;0.90;99.90;;;;;;5055582;28;20282;-84
2023/03/03 08:14:11;;;;;;;82.27;37.83;;;0.60;99.90;;;;;;5036645;28;20200;-84
2023/03/03 08:16:37;;;;;;;71.47;31.37;;;0.90;99.90;;;;;;5036120;28;20171;-85
2023/03/03 08:19:04;;;;;;;77.50;35.50;;;0.90;99.90;;;;;;5036971;28;20710;-85
2023/03/03 08:21:31;;;;;;;75.77;33.70;;;0.80;99.90;;;;;;5054533;28;20222;-83
2023/03/03 08:23:56;;;;;;;81.47;34.63;;;0.90;99.90;;;;;;5036665;28;20753;-84
2023/03/03 08:26:23;;;;;;;84.07;36.57;;;1.00;99.90;;;;;;5036345;28;20176;-82
2023/03/03 08:28:49;;;;;;;95.03;39.40;;;1.00;99.90;;;;;;5036669;28;20180;-84
2023/03/03 08:31:16;;;;;;;87.67;38.60;;;1.10;99.90;;;;;;5036469;28;20223;-83
2023/03/03 08:33:42;;;;;;;80.57;37.13;;;1.00;99.90;;;;;;5036612;28;20200;-83
2023/03/03 08:36:08;;;;;;;89.90;40.50;;;1.00;99.90;;;;;;5036534;28;20226;-83
2023/03/03 08:38:34;;;;;;;93.90;35.90;;;1.10;99.90;;;;;;5037114;28;20184;-84
2023/03/03 08:41:00;;;;;;;89.00;38.03;;;1.10;99.90;;;;;;5037744;28;20180;-85
2023/03/03 08:43:26;;;;;;;77.03;34.97;;;1.20;99.90;;;;;;5038404;28;20204;-83
2023/03/03 08:45:56;;;;;;;78.40;34.07;;;1.10;99.90;;;;;;5039769;28;20666;-84
2023/03/03 08:48:22;;;;;;;65.30;29.27;;;1.20;99.90;;;;;;5039551;28;20187;-83
2023/03/03 08:50:48;;;;;;;67.97;31.63;;;1.20;99.90;;;;;;5038830;28;20517;-84
2023/03/03 08:53:13;;;;;;;95.43;42.70;;;1.20;99.90;;;;;;5035540;28;20238;-84
2023/03/03 08:55:40;;;;;;;93.33;38.87;;;1.20;99.90;;;;;;5035712;28;20236;-84
2023/03/03 08:58:05;;;;;;;81.10;34.27;;;1.30;99.90;;;;;;5035688;28;20209;-84
2023/03/03 09:00:31;;;;;;;72.47;33.30;;;1.30;99.90;;;;;;5035865;28;20212;-84
2023/03/03 09:02:57;;;;;;;77.07;32.50;;;1.30;99.90;;;;;;5035462;28;20208;-84
2023/03/03 09:05:23;;;;;;;74.50;33.27;;;1.20;99.90;;;;;;5035647;28;20200;-84
2023/03/03 09:07:53;;;;;;;75.10;32.00;;;1.30;99.90;;;;;;5035679;28;20553;-84
2023/03/03 09:10:26;;;;;;;78.13;32.63;;;1.30;99.90;;;;;;5036642;28;20644;-84
2023/03/03 09:12:55;;;;;;;85.63;37.23;;;1.40;99.90;;;;;;5035245;28;20219;-84
2023/03/03 09:15:27;;;;;;;96.70;36.77;;;1.50;99.90;;;;;;5035926;28;20173;-86
2023/03/03 09:17:56;;;;;;;90.63;38.83;;;1.50;99.90;;;;;;5035337;28;20176;-84
2023/03/03 09:20:24;;;;;;;94.90;42.00;;;1.80;99.90;;;;;;5035281;28;20190;-84
2023/03/03 09:22:50;;;;;;;99.90;41.03;;;1.50;99.90;;;;;;5035161;28;20222;-84
2023/03/03 09:25:35;;;;;;;93.17;41.33;;;1.50;99.90;;;;;;5035221;28;20558;-84
2023/03/03 09:28:02;;;;;;;105.37;45.63;;;1.50;99.90;;;;;;5036650;28;20172;-84
2023/03/03 09:30:36;;;;;;;100.53;40.77;;;1.60;99.90;;;;;;5035344;28;20181;-84
2023/03/03 09:33:21;;;;;;;97.53;40.63;;;1.60;99.90;;;;;;5036768;28;20200;-84
2023/03/03 09:35:50;;;;;;;95.50;41.37;;;1.80;99.90;;;;;;5036173;28;20625;-84
2023/03/03 09:38:24;;;;;;;105.50;40.77;;;1.80;99.90;;;;;;5035772;28;20255;-84
2023/03/03 09:40:55;;;;;;;108.37;43.80;;;1.80;99.90;;;;;;5036262;28;20507;-84
2023/03/03 09:43:42;;;;;;;103.60;42.93;;;1.90;99.90;;;;;;5036369;28;20196;-84
2023/03/03 09:46:26;;;;;;;99.93;38.80;;;1.90;99.90;;;;;;5035723;28;20524;-86
2023/03/03 09:49:04;;;;;;;99.73;43.53;;;2.00;99.90;;;;;;5035995;28;20200;-83
2023/03/03 09:51:51;;;;;;;107.60;46.17;;;2.00;99.90;;;;;;5035769;28;20208;-84
2023/03/03 09:54:16;;;;;;;105.43;44.93;;;2.00;99.90;;;;;;5035314;28;20718;-87
2023/03/03 09:57:04;;;;;;;103.17;43.93;;;2.10;99.90;;;;;;5035903;28;20264;-86
2023/03/03 09:59:36;;;;;;;115.90;49.87;;;2.10;99.90;;;;;;5036425;28;20222;-86
2023/03/03 10:02:30;;;;;;;92.60;41.67;;;2.20;99.90;;;;;;5036092;28;20176;-85
2023/03/03 10:04:59;;;;;;;100.73;42.73;;;2.20;99.90;;;;;;5037203;28;20191;-84
2023/03/03 10:07:47;;;;;;;107.50;47.77;;;2.10;99.90;;;;;;5036847;28;20234;-85
2023/03/03 10:10:28;;;;;;;104.20;44.23;;;2.20;99.90;;;;;;5035918;28;20288;-86
2023/03/03 10:13:14;;;;;;;105.83;42.60;;;2.20;99.90;;;;;;5037834;28;20216;-86
2023/03/03 10:15:55;;;;;;;107.60;45.20;;;2.20;99.90;;;;;;5036422;28;20645;-85
2023/03/03 10:18:36;;;;;;;96.87;45.23;;;2.20;99.90;;;;;;5034412;28;20198;-84
2023/03/03 10:21:10;;;;;;;106.10;47.27;;;2.30;99.90;;;;;;5034640;28;20189;-84
2023/03/03 10:24:15;;;;;;;109.83;46.70;;;2.30;99.90;;;;;;5034102;28;20234;-84
2023/03/03 10:26:47;;;;;;;107.63;45.50;;;2.30;99.90;;;;;;5033278;28;20591;-84
2023/03/03 10:29:41;;;;;;;113.00;49.00;;;2.30;99.90;;;;;;5034195;28;20193;-84
2023/03/03 10:32:25;;;;;;;109.83;48.77;;;2.40;99.90;;;;;;5034423;28;20708;-85
2023/03/03 10:35:12;;;;;;;111.47;46.50;;;2.30;99.90;;;;;;5034292;28;20267;-84
2023/03/03 10:38:04;;;;;;;112.00;50.20;;;2.40;99.90;;;;;;5034285;28;20177;-84
2023/03/03 10:41:03;;;;;;;106.30;46.53;;;2.40;99.90;;;;;;5034127;28;20208;-83
2023/03/03 10:44:02;;;;;;;111.77;49.47;;;2.40;99.90;;;;;;5034287;28;20576;-84
2023/03/03 10:46:45;;;;;;;104.17;44.87;;;2.70;99.90;;;;;;5035423;28;20168;-85
2023/03/03 10:49:25;;;;;;;112.13;48.23;;;2.40;99.90;;;;;;5034664;28;20545;-84
2023/03/03 10:52:00;;;;;;;107.33;46.33;;;2.40;99.90;;;;;;5034865;28;20602;-84
2023/03/03 10:55:00;;;;;;;97.03;43.13;;;2.40;99.90;;;;;;5033603;28;20675;-84
2023/03/03 10:57:51;;;;;;;102.93;44.90;;;2.50;99.90;;;;;;5033744;28;20228;-83
2023/03/03 11:00:43;;;;;;;104.73;46.00;;;2.60;99.90;;;;;;5034336;28;20170;-83
2023/03/03 11:03:28;;;;;;;95.13;43.50;;;2.60;99.90;;;;;;5033489;28;20209;-83
2023/03/03 11:05:58;;;;;;;107.13;46.37;;;2.80;99.90;;;;;;5032164;28;20170;-84
2023/03/03 11:08:42;;;;;;;89.97;43.13;;;2.80;99.90;;;;;;5033448;28;20182;-83
2023/03/03 11:11:46;;;;;;;103.30;47.83;;;2.80;99.90;;;;;;5033142;28;20206;-83
2023/03/03 11:14:22;;;;;;;96.60;43.10;;;2.90;99.90;;;;;;5033400;28;20263;-84
2023/03/03 11:17:22;;;;;;;107.77;48.20;;;2.80;99.90;;;;;;5033683;28;20651;-84
2023/03/03 11:20:30;;;;;;;98.03;39.30;;;2.80;99.90;;;;;;5032943;28;20183;-83
2023/03/03 11:23:18;;;;;;;98.80;43.20;;;2.80;99.90;;;;;;5033230;28;20205;-84
2023/03/03 11:26:02;;;;;;;98.13;43.30;;;2.90;99.90;;;;;;5033136;28;20170;-84
2023/03/03 11:28:50;;;;;;;114.50;49.23;;;2.90;99.90;;;;;;5033279;28;20181;-84
2023/03/03 11:31:23;;;;;;;106.17;48.80;;;3.00;99.90;;;;;;5033138;28;20207;-84
2023/03/03 11:34:01;;;;;;;101.80;49.80;;;3.00;99.90;;;;;;5033241;28;20290;-83
2023/03/03 11:36:33;;;;;;;105.70;49.13;;;3.00;99.90;;;;;;5033234;28;20173;-84
2023/03/03 11:39:03;;;;;;;113.13;49.97;;;3.10;99.90;;;;;;5034679;28;20171;-84
2023/03/03 11:41:42;;;;;;;107.87;49.47;;;3.10;99.90;;;;;;5039277;28;20217;-83
2023/03/03 11:44:17;;;;;;;109.73;50.63;;;3.10;99.90;;;;;;5043594;28;20259;-84
2023/03/03 11:46:52;;;;;;;102.50;46.40;;;3.00;99.90;;;;;;5042910;28;20170;-84
2023/03/03 11:50:03;;;;;;;108.50;47.00;;;3.00;99.90;;;;;;5043751;28;20182;-85
2023/03/03 11:53:00;;;;;;;110.03;48.23;;;3.10;99.90;;;;;;4951446;29;20219;-86
2023/03/03 11:55:40;;;;;;;117.27;52.63;;;3.20;99.90;;;;;;4944310;29;20178;-83
2023/03/03 11:58:06;;;;;;;116.57;48.53;;;3.20;99.90;;;;;;5013164;28;20709;-85
2023/03/03 12:00:43;;;;;;;101.30;46.00;;;5.50;99.90;;;;;;5033595;28;20186;-84
2023/03/03 12:03:21;;;;;;;105.63;46.47;;;3.30;99.90;;;;;;5033356;28;20288;-84
2023/03/03 12:06:06;;;;;;;108.90;47.53;;;3.20;99.90;;;;;;5035542;28;20181;-83
2023/03/03 12:08:47;;;;;;;107.57;48.43;;;3.20;99.90;;;;;;5035066;28;20168;-84
2023/03/03 12:11:38;;;;;;;113.87;49.90;;;3.30;99.90;;;;;;5035443;28;20235;-88
2023/03/03 12:14:34;;;;;;;102.07;44.97;;;3.30;99.90;;;;;;5035948;28;20268;-85
2023/03/03 12:17:02;;;;;;;92.10;43.77;;;3.30;99.90;;;;;;5034117;28;20294;-83
2023/03/03 12:19:57;;;;;;;94.63;45.90;;;3.40;99.90;;;;;;5039053;28;20273;-85
2023/03/03 12:22:33;;;;;;;86.97;42.00;;;3.30;99.90;;;;;;5039211;28;20268;-85
2023/03/03 12:25:12;;;;;;;94.67;43.40;;;3.30;99.90;;;;;;5038916;28;20187;-85
2023/03/03 12:28:07;;;;;;;95.37;43.03;;;3.40;99.90;;;;;;5037946;28;20278;-84
2023/03/03 12:30:32;;;;;;;99.23;45.87;;;3.50;99.90;;;;;;5037953;28;20182;-84
2023/03/03 12:33:19;;;;;;;91.43;43.80;;;3.40;99.90;;;;;;5038517;28;20222;-84
2023/03/03 12:36:02;;;;;;;91.87;43.83;;;3.50;99.90;;;;;;5037867;28;20172;-84
2023/03/03 12:38:37;;;;;;;96.03;46.90;;;3.70;99.90;;;;;;5039526;28;20171;-84
2023/03/03 12:41:13;;;;;;;94.10;42.80;;;3.70;99.90;;;;;;5037794;28;20175;-85
2023/03/03 12:43:46;;;;;;;100.13;46.17;;;3.70;99.90;;;;;;5038409;28;20207;-85
2023/03/03 12:46:28;;;;;;;96.47;44.73;;;3.80;99.90;;;;;;5038589;28;20640;-82
2023/03/03 12:48:53;;;;;;;94.03;45.87;;;3.80;99.90;;;;;;5039293;28;20168;-86
2023/03/03 12:51:25;;;;;;;102.17;46.90;;;3.80;99.90;;;;;;5037297;28;20674;-84
2023/03/03 12:53:56;;;;;;;95.53;45.93;;;3.80;99.90;;;;;;5037568;28;20215;-87
2023/03/03 12:56:53;;;;;;;107.00;49.93;;;3.90;99.90;;;;;;5038279;28;20187;-85